createdAt,value
2023-03-13T00:07:20.850Z,22.64
2023-03-13T00:08:20.867Z,22.63
2023-03-13T00:10:20.867Z,22.64
2023-03-13T00:12:20.955Z,22.66
2023-03-13T00:14:20.891Z,22.67
2023-03-13T00:15:20.889Z,22.64
2023-03-13T00:16:20.971Z,22.64
2023-03-13T00:38:20.955Z,22.66
2023-03-13T00:39:20.958Z,22.63
2023-03-13T00:40:20.971Z,22.64
2023-03-13T00:42:20.975Z,22.64
2023-03-13T00:43:20.980Z,22.64
2023-03-13T00:44:20.988Z,22.63
2023-03-13T00:45:20.982Z,22.63
2023-03-13T00:46:21.072Z,22.64
2023-03-13T00:47:20.999Z,22.66
2023-03-13T00:48:21.095Z,22.64
2023-03-13T00:49:21.012Z,22.64
2023-03-13T00:50:21.017Z,22.63
2023-03-13T00:51:21.019Z,22.64
2023-03-13T00:52:21.023Z,22.64
2023-03-13T00:53:21.126Z,22.64
2023-03-13T00:54:21.032Z,22.63
2023-03-13T00:55:21.040Z,22.59
2023-03-13T00:56:21.061Z,22.64
2023-03-13T00:57:21.053Z,22.64
2023-03-13T00:58:21.056Z,22.63
2023-03-13T00:59:21.069Z,22.66
2023-03-13T01:00:21.102Z,22.63
2023-03-13T01:01:21.149Z,22.64
2023-03-13T01:02:21.252Z,22.64
2023-03-13T01:03:21.321Z,22.63
2023-03-13T01:04:21.114Z,22.63
2023-03-13T01:05:21.117Z,22.60
2023-03-13T01:06:21.125Z,22.63
2023-03-13T01:07:21.122Z,22.63
2023-03-13T01:08:21.123Z,22.64
2023-03-13T01:09:21.131Z,22.63
2023-03-13T01:10:21.130Z,22.60
2023-03-13T01:11:21.143Z,22.63
2023-03-13T01:12:21.129Z,22.63
2023-03-13T01:13:21.133Z,22.63
2023-03-13T01:15:21.419Z,22.63
2023-03-13T01:16:21.232Z,22.63
2023-03-13T01:18:21.195Z,22.63
2023-03-13T01:19:21.161Z,22.63
2023-03-13T01:20:21.177Z,22.62
2023-03-13T01:21:21.178Z,22.64
2023-03-13T01:22:21.185Z,22.63
2023-03-13T01:23:21.206Z,22.62
2023-03-13T01:36:21.489Z,22.63
2023-03-13T01:37:21.502Z,22.62
2023-03-13T01:38:21.537Z,22.63
2023-03-13T01:39:21.550Z,22.60
2023-03-13T01:40:21.569Z,22.63
2023-03-13T01:41:21.593Z,22.62
2023-03-13T01:42:21.604Z,22.62
2023-03-13T01:43:26.855Z,22.62
2023-03-13T01:45:21.645Z,22.60
2023-03-13T01:46:21.784Z,22.64
2023-03-13T01:47:21.666Z,22.62
2023-03-13T01:48:21.673Z,22.64
2023-03-13T01:49:21.685Z,22.64
2023-03-13T01:50:21.700Z,22.63
2023-03-13T01:51:21.706Z,22.63
2023-03-13T01:52:21.709Z,22.66
2023-03-13T01:53:21.719Z,22.62
2023-03-13T01:54:21.723Z,22.63
2023-03-13T01:55:21.740Z,22.63
2023-03-13T01:56:21.759Z,22.63
2023-03-13T01:57:21.740Z,22.63
2023-03-13T01:58:21.733Z,22.64
2023-03-13T01:59:21.735Z,22.63
2023-03-13T02:00:21.756Z,22.64
2023-03-13T02:01:21.791Z,22.63
2023-03-13T02:02:21.837Z,22.63
2023-03-13T02:03:21.762Z,22.62
2023-03-13T02:04:21.768Z,22.63
2023-03-13T02:05:21.774Z,22.63
2023-03-13T02:06:21.775Z,22.64
2023-03-13T02:07:21.773Z,22.60
2023-03-13T02:08:21.780Z,22.63
2023-03-13T02:09:21.781Z,22.63
2023-03-13T02:10:21.795Z,22.63
2023-03-13T02:11:21.788Z,22.63
2023-03-13T02:12:21.849Z,22.63
2023-03-13T02:13:22.401Z,22.62
2023-03-13T02:14:22.444Z,22.63
2023-03-13T02:15:21.796Z,22.64
2023-03-13T02:16:21.861Z,22.63
2023-03-13T02:17:21.798Z,22.63
2023-03-13T02:18:21.828Z,22.63
2023-03-13T02:19:21.866Z,22.62
2023-03-13T02:20:21.860Z,22.64
2023-03-13T02:21:21.945Z,22.63
2023-03-13T02:22:21.908Z,22.63
2023-03-13T02:23:21.941Z,22.63
2023-03-13T02:24:21.958Z,22.62
2023-03-13T02:25:21.978Z,22.63
2023-03-13T02:26:22.000Z,22.63
2023-03-13T02:27:22.033Z,22.60
2023-03-13T02:28:22.055Z,22.62
2023-03-13T02:29:22.093Z,22.62
2023-03-13T02:30:22.158Z,22.59
2023-03-13T02:31:22.210Z,22.62
2023-03-13T02:32:22.218Z,22.60
2023-03-13T02:33:22.184Z,22.60
2023-03-13T02:34:22.208Z,22.62
2023-03-13T02:35:22.283Z,22.60
2023-03-13T02:36:22.247Z,22.60
2023-03-13T02:37:22.269Z,22.60
2023-03-13T02:38:22.297Z,22.60
2023-03-13T02:39:22.330Z,22.62
2023-03-13T02:40:22.348Z,22.62
2023-03-13T02:41:22.372Z,22.60
2023-03-13T02:42:22.408Z,22.59
2023-03-13T02:43:22.424Z,22.60
2023-03-13T02:44:22.445Z,22.60
2023-03-13T02:45:22.489Z,22.62
2023-03-13T02:46:22.552Z,22.60
2023-03-13T02:47:22.540Z,22.59
2023-03-13T02:48:22.556Z,22.59
2023-03-13T02:49:22.580Z,22.59
2023-03-13T02:50:22.606Z,22.62
2023-03-13T02:51:22.632Z,22.63
2023-03-13T02:52:22.652Z,22.59
2023-03-13T02:53:22.663Z,22.59
2023-03-13T02:54:22.696Z,22.60
2023-03-13T02:55:22.728Z,22.59
2023-03-13T02:56:22.742Z,22.59
2023-03-13T02:57:22.770Z,22.60
2023-03-13T02:58:22.781Z,22.60
2023-03-13T02:59:22.823Z,22.60
2023-03-13T03:00:22.846Z,22.59
2023-03-13T03:01:22.893Z,22.58
2023-03-13T03:02:22.886Z,22.59
2023-03-13T03:03:22.912Z,22.59
2023-03-13T03:04:23.115Z,22.60
2023-03-13T03:05:22.972Z,22.59
2023-03-13T03:06:23.413Z,22.60
2023-03-13T03:07:23.018Z,22.59
2023-03-13T03:08:23.034Z,22.59
2023-03-13T03:09:23.061Z,22.62
2023-03-13T03:10:23.082Z,22.60
2023-03-13T03:48:24.110Z,22.66
2023-03-13T03:49:24.052Z,22.63
2023-03-13T03:50:24.078Z,22.62
2023-03-13T03:51:24.114Z,22.63
2023-03-13T03:52:24.124Z,22.60
2023-03-13T03:53:24.215Z,22.64
2023-03-13T03:54:24.174Z,22.63
2023-03-13T03:55:24.170Z,22.64
2023-03-13T03:56:24.193Z,22.62
2023-03-13T03:58:24.230Z,22.64
2023-03-13T03:59:24.248Z,22.63
2023-03-13T04:00:24.273Z,22.66
2023-03-13T04:01:24.283Z,22.64
2023-03-13T04:02:24.334Z,22.64
2023-03-13T04:03:24.527Z,22.64
2023-03-13T04:04:24.359Z,22.64
2023-03-13T04:05:24.397Z,22.63
2023-03-13T04:06:24.895Z,22.63
2023-03-13T04:07:24.401Z,22.63
2023-03-13T04:08:24.419Z,22.66
2023-03-13T04:09:24.439Z,22.63
2023-03-13T04:10:24.459Z,22.64
2023-03-13T04:11:24.458Z,22.63
2023-03-13T04:12:24.484Z,22.63
2023-03-13T04:13:24.508Z,22.66
2023-03-13T04:14:24.522Z,22.64
2023-03-13T04:15:24.541Z,22.66
2023-03-13T04:16:25.414Z,22.63
2023-03-13T04:17:24.600Z,22.64
2023-03-13T04:18:24.609Z,22.63
2023-03-13T04:19:24.636Z,22.64
2023-03-13T04:20:24.643Z,22.64
2023-03-13T04:21:24.682Z,22.63
2023-03-13T04:22:24.683Z,22.64
2023-03-13T04:23:24.723Z,22.63
2023-03-13T04:24:24.730Z,22.64
2023-03-13T04:25:24.745Z,22.63
2023-03-13T04:26:24.781Z,22.64
2023-03-13T04:27:24.773Z,22.64
2023-03-13T04:28:24.796Z,22.64
2023-03-13T04:29:24.814Z,22.66
2023-03-13T04:30:24.885Z,22.63
2023-03-13T04:31:24.841Z,22.63
2023-03-13T04:32:24.861Z,22.64
2023-03-13T04:33:24.874Z,22.64
2023-03-13T04:34:24.894Z,22.64
2023-03-13T04:35:25.959Z,22.66
2023-03-13T04:36:25.054Z,22.64
2023-03-13T04:37:24.920Z,22.64
2023-03-13T04:38:24.936Z,22.67
2023-03-13T04:39:24.954Z,22.67
2023-03-13T04:40:24.956Z,22.69
2023-03-13T04:41:24.964Z,22.67
2023-03-13T04:42:24.969Z,22.67
2023-03-13T10:39:31.383Z,22.80
2023-03-13T12:03:30.920Z,22.94
2023-03-13T12:04:30.853Z,22.89
2023-03-13T12:12:30.846Z,22.98
2023-03-13T12:21:30.907Z,23.04
2023-03-13T12:23:30.415Z,23.01
2023-03-13T12:32:30.483Z,22.97
2023-03-13T12:43:30.420Z,22.96
2023-03-13T12:44:31.358Z,22.94
2023-03-13T12:49:30.419Z,22.93
2023-03-13T12:58:30.449Z,22.97
2023-03-13T13:06:30.459Z,22.94
2023-03-13T13:21:30.609Z,22.94
2023-03-13T13:22:30.729Z,22.94
2023-03-13T13:23:30.699Z,22.93
2023-03-13T13:24:30.742Z,22.93
2023-03-13T13:25:30.754Z,22.91
2023-03-13T13:26:30.767Z,22.94
2023-03-13T13:27:30.897Z,22.94
2023-03-13T13:28:30.867Z,22.96
2023-03-13T13:29:30.843Z,22.94
2023-03-13T13:30:30.876Z,22.90
2023-03-13T13:31:30.967Z,22.94
2023-03-13T13:32:31.000Z,22.93
2023-03-13T13:33:31.207Z,22.93
2023-03-13T13:34:30.998Z,22.96
2023-03-13T13:35:31.103Z,22.94
2023-03-13T13:36:31.020Z,22.96
2023-03-13T13:37:31.029Z,22.94
2023-03-13T13:38:31.063Z,22.94
2023-03-13T13:39:31.305Z,22.96
2023-03-13T13:40:31.155Z,22.94
2023-03-13T13:41:31.242Z,22.94
2023-03-13T13:42:31.335Z,22.96
2023-03-13T13:43:31.278Z,22.93
2023-03-13T20:10:36.568Z,22.63
2023-03-13T22:52:40.796Z,22.67
2023-03-13T23:23:40.802Z,22.66
2023-03-13T23:27:40.618Z,22.67
2023-03-13T23:28:40.644Z,22.66
2023-03-13T23:29:40.664Z,22.66
2023-03-13T23:30:40.679Z,22.67
2023-03-13T23:31:40.684Z,22.66
2023-03-13T23:32:40.775Z,22.64
2023-03-13T23:33:40.736Z,22.69
2023-03-13T23:34:40.743Z,22.66
2023-03-13T23:35:40.793Z,22.69
2023-03-13T23:36:40.783Z,22.66
2023-03-13T23:37:40.810Z,22.67
2023-03-13T23:38:40.824Z,22.67
2023-03-13T23:39:40.843Z,22.66
2023-03-13T23:40:40.861Z,22.67
2023-03-13T23:41:40.900Z,22.67
2023-03-13T23:42:40.883Z,22.64
2023-03-13T23:43:40.912Z,22.67
2023-03-13T23:44:40.919Z,22.64
2023-03-13T23:45:40.952Z,22.66
2023-03-13T23:46:40.994Z,22.66
2023-03-13T23:47:40.967Z,22.66
2023-03-13T23:48:40.985Z,22.66
2023-03-13T23:53:41.063Z,22.66
2023-03-13T23:58:41.151Z,22.66
2023-03-13T23:59:41.161Z,22.66
